createdAt,value
2018-01-21T00:00:38.361Z,1.11
2018-01-21T00:03:06.364Z,1.62
2018-01-21T00:05:34.308Z,1.63
2018-01-21T00:08:02.313Z,1.49
2018-01-21T00:10:30.222Z,1.62
2018-01-21T00:12:58.161Z,2.03
2018-01-21T00:15:26.079Z,1.98
2018-01-21T00:17:54.027Z,2.07
2018-01-21T00:20:21.952Z,2.40
2018-01-21T00:22:50.001Z,2.53
2018-01-21T00:25:17.985Z,2.47
2018-01-21T00:27:45.901Z,2.02
2018-01-21T00:30:13.861Z,2.39
2018-01-21T00:32:41.909Z,2.23
2018-01-21T00:35:09.885Z,2.67
2018-01-21T00:37:37.843Z,2.68
2018-01-21T00:40:05.830Z,2.75
2018-01-21T00:42:33.801Z,2.66
2018-01-21T00:45:01.906Z,2.89
2018-01-21T00:47:29.821Z,2.72
2018-01-21T00:49:57.863Z,2.86
2018-01-21T00:52:25.802Z,2.78
2018-01-21T00:54:54.505Z,2.62
2018-01-21T00:57:22.469Z,2.67
2018-01-21T00:59:50.465Z,3.01
2018-01-21T01:02:18.441Z,3.06
2018-01-21T01:04:46.552Z,3.21
2018-01-21T01:07:14.611Z,3.43
2018-01-21T01:09:42.574Z,3.17
2018-01-21T01:12:10.554Z,3.30
2018-01-21T01:14:38.516Z,3.23
2018-01-21T01:17:06.533Z,2.96
2018-01-21T01:19:34.562Z,3.33
2018-01-21T01:22:02.522Z,3.36
2018-01-21T01:24:30.441Z,2.90
2018-01-21T01:26:58.376Z,2.54
2018-01-21T01:29:26.583Z,2.34
2018-01-21T01:31:54.506Z,2.08
2018-01-21T01:34:22.474Z,1.86
2018-01-21T01:36:50.501Z,1.86
2018-01-21T01:39:18.425Z,1.66
2018-01-21T01:41:46.424Z,1.65
2018-01-21T01:44:14.525Z,1.62
2018-01-21T01:46:42.522Z,1.65
2018-01-21T01:49:10.445Z,1.71
2018-01-21T01:51:38.414Z,1.76
2018-01-21T01:54:06.343Z,1.75
2018-01-21T01:56:34.289Z,1.72
2018-01-21T01:59:02.261Z,1.78
2018-01-21T02:01:30.170Z,1.72
2018-01-21T02:03:58.166Z,1.76
2018-01-21T02:06:26.101Z,1.79
2018-01-21T02:08:54.073Z,1.77
2018-01-21T02:11:22.048Z,1.78
2018-01-21T02:13:49.971Z,1.80
2018-01-21T02:16:17.889Z,1.76
2018-01-21T02:18:46.261Z,1.82
2018-01-21T02:21:14.275Z,1.82
2018-01-21T02:23:42.255Z,1.84
2018-01-21T02:26:10.368Z,1.87
2018-01-21T02:28:38.475Z,1.86
2018-01-21T02:31:06.386Z,1.82
2018-01-21T02:33:34.337Z,1.76
2018-01-21T02:36:02.270Z,1.68
2018-01-21T02:38:30.301Z,1.73
2018-01-21T02:40:58.251Z,1.70
2018-01-21T02:43:26.177Z,1.72
2018-01-21T02:45:54.197Z,1.78
2018-01-21T02:48:22.165Z,1.72
2018-01-21T02:50:50.106Z,1.68
2018-01-21T02:53:18.044Z,1.62
2018-01-21T02:55:46.015Z,1.57
2018-01-21T02:58:14.051Z,1.64
2018-01-21T03:00:42.048Z,1.64
2018-01-21T03:03:09.989Z,1.71
2018-01-21T03:05:37.913Z,1.71
2018-01-21T03:08:05.958Z,1.72
2018-01-21T03:10:33.881Z,1.77
2018-01-21T03:13:01.834Z,1.76
2018-01-21T03:15:29.765Z,1.76
2018-01-21T03:17:57.717Z,1.91
2018-01-21T03:20:25.657Z,1.87
2018-01-21T03:22:53.809Z,1.57
2018-01-21T03:25:22.151Z,1.58
2018-01-21T03:27:50.173Z,1.55
2018-01-21T03:30:18.134Z,1.51
2018-01-21T03:32:46.057Z,1.52
2018-01-21T03:35:14.007Z,1.58
2018-01-21T03:37:41.926Z,1.62
2018-01-21T03:40:09.868Z,1.67
2018-01-21T03:42:37.811Z,1.78
2018-01-21T03:45:05.809Z,1.68
2018-01-21T03:47:33.728Z,1.67
2018-01-21T03:50:01.693Z,1.68
2018-01-21T03:52:29.622Z,1.67
2018-01-21T03:54:57.530Z,1.70
2018-01-21T03:57:25.497Z,1.73
2018-01-21T03:59:53.568Z,1.79
2018-01-21T04:02:21.493Z,1.72
2018-01-21T04:04:49.463Z,1.69
2018-01-21T04:07:17.377Z,1.73
2018-01-21T04:09:45.324Z,1.79
2018-01-21T04:12:13.950Z,1.79
2018-01-21T04:14:41.905Z,1.80
2018-01-21T04:17:09.833Z,1.83
2018-01-21T04:19:37.784Z,1.86
2018-01-21T04:22:05.717Z,1.83
2018-01-21T04:24:33.680Z,1.84
2018-01-21T04:27:01.609Z,1.78
2018-01-21T04:29:29.526Z,1.77
2018-01-21T04:31:57.513Z,1.71
2018-01-21T04:34:25.413Z,1.66
2018-01-21T04:36:53.384Z,1.71
2018-01-21T04:39:21.339Z,1.64
2018-01-21T04:41:49.268Z,1.61
2018-01-21T04:44:17.230Z,1.64
2018-01-21T04:46:45.157Z,1.60
2018-01-21T04:49:13.080Z,1.50
2018-01-21T04:51:41.061Z,1.51
2018-01-21T04:54:08.987Z,1.58
2018-01-21T04:56:37.049Z,1.57
2018-01-21T04:59:05.009Z,1.61
2018-01-21T05:01:32.944Z,1.64
2018-01-21T05:04:00.965Z,1.63
2018-01-21T05:06:28.969Z,1.64
2018-01-21T05:08:56.922Z,1.61
2018-01-21T05:11:24.905Z,1.63
2018-01-21T05:13:52.808Z,1.60
2018-01-21T05:16:20.751Z,1.58
2018-01-21T05:18:48.692Z,1.67
2018-01-21T05:21:16.633Z,2.22
2018-01-21T05:23:44.579Z,2.12
2018-01-21T05:26:12.499Z,2.12
2018-01-21T05:28:40.438Z,2.03
2018-01-21T05:31:08.381Z,1.93
2018-01-21T05:33:36.301Z,1.88
2018-01-21T05:36:04.243Z,1.86
2018-01-21T05:38:32.186Z,1.84
2018-01-21T05:41:00.134Z,1.83
2018-01-21T05:43:28.237Z,1.79
2018-01-21T05:45:56.178Z,1.77
2018-01-21T05:48:24.113Z,1.72
2018-01-21T05:50:52.141Z,1.68
2018-01-21T05:53:20.113Z,1.72
2018-01-21T05:55:48.028Z,1.68
2018-01-21T05:58:16.060Z,1.72
2018-01-21T06:00:43.997Z,1.72
2018-01-21T06:03:12.085Z,1.76
2018-01-21T06:05:40.012Z,1.73
2018-01-21T06:08:08.006Z,1.82
2018-01-21T06:10:35.945Z,1.77
2018-01-21T06:13:03.899Z,2.03
2018-01-21T06:15:31.809Z,2.39
2018-01-21T06:17:59.866Z,2.39
2018-01-21T06:20:28.825Z,2.42
2018-01-21T06:22:56.736Z,2.26
2018-01-21T06:25:24.674Z,2.06
2018-01-21T06:27:52.734Z,2.05
2018-01-21T06:30:20.712Z,2.02
2018-01-21T06:32:48.745Z,2.00
2018-01-21T06:35:16.733Z,1.97
2018-01-21T06:37:45.604Z,1.95
2018-01-21T06:40:13.561Z,1.94
2018-01-21T06:42:42.285Z,1.92
2018-01-21T06:45:10.444Z,1.93
2018-01-21T06:47:38.362Z,1.87
2018-01-21T06:50:06.304Z,1.71
2018-01-21T06:52:34.317Z,1.69
2018-01-21T06:55:02.520Z,1.63
2018-01-21T06:57:30.464Z,1.62
2018-01-21T06:59:58.417Z,1.77
2018-01-21T07:02:26.523Z,1.87
2018-01-21T07:04:54.528Z,1.80
2018-01-21T07:07:22.742Z,1.82
2018-01-21T07:09:50.743Z,1.83
2018-01-21T07:12:18.846Z,1.81
2018-01-21T07:14:46.804Z,1.79
2018-01-21T07:17:14.730Z,1.84
2018-01-21T07:19:42.705Z,1.87
2018-01-21T07:22:10.688Z,1.81
2018-01-21T07:24:38.638Z,1.80
2018-01-21T07:27:06.588Z,1.83
2018-01-21T07:29:34.563Z,1.82
2018-01-21T07:32:02.540Z,1.69
2018-01-21T07:34:30.486Z,1.57
2018-01-21T07:36:58.406Z,1.71
2018-01-21T07:39:26.354Z,1.77
2018-01-21T07:41:54.294Z,1.80
2018-01-21T07:44:22.281Z,1.92
2018-01-21T07:46:50.233Z,1.72
2018-01-21T07:49:18.254Z,1.69
2018-01-21T07:51:46.192Z,1.79
2018-01-21T07:54:14.266Z,1.83
2018-01-21T07:56:42.210Z,1.86
2018-01-21T07:59:10.141Z,1.88
2018-01-21T08:01:38.252Z,1.91
2018-01-21T08:04:06.171Z,1.94
2018-01-21T08:06:34.110Z,1.93
2018-01-21T08:09:02.084Z,1.87
2018-01-21T08:11:30.022Z,1.99
2018-01-21T08:13:58.057Z,1.92
2018-01-21T08:16:25.989Z,2.00
2018-01-21T08:18:54.000Z,2.05
2018-01-21T08:21:21.926Z,2.03
2018-01-21T08:23:49.855Z,1.98
2018-01-21T08:26:17.811Z,2.02
2018-01-21T08:28:45.749Z,2.03
2018-01-21T08:31:13.676Z,2.09
2018-01-21T08:33:47.121Z,2.13
2018-01-21T08:36:21.080Z,2.15
2018-01-21T08:38:54.779Z,2.14
2018-01-21T08:41:28.651Z,2.19
2018-01-21T08:43:56.678Z,2.22
2018-01-21T08:46:25.374Z,2.23
2018-01-21T08:48:53.929Z,2.35
2018-01-21T08:51:21.887Z,2.39
2018-01-21T08:53:49.828Z,2.47
2018-01-21T08:56:18.530Z,2.35
2018-01-21T08:58:48.155Z,2.83
2018-01-21T09:01:16.162Z,2.50
2018-01-21T09:03:45.194Z,2.51
2018-01-21T09:06:13.432Z,2.47
2018-01-21T09:08:41.453Z,2.50
2018-01-21T09:11:10.268Z,2.59
2018-01-21T09:13:38.730Z,2.64
2018-01-21T09:16:06.645Z,2.65
2018-01-21T09:18:34.579Z,2.66
2018-01-21T09:21:02.893Z,2.70
2018-01-21T09:23:31.263Z,2.73
2018-01-21T09:25:59.191Z,2.79
2018-01-21T09:28:27.124Z,2.89
2018-01-21T09:30:55.481Z,2.90
2018-01-21T09:33:23.466Z,2.93
2018-01-21T09:35:51.556Z,2.95
2018-01-21T09:38:19.577Z,3.00
2018-01-21T09:40:47.514Z,3.02
2018-01-21T09:43:15.640Z,3.08
2018-01-21T09:45:43.585Z,3.10
2018-01-21T09:48:11.525Z,3.12
2018-01-21T09:50:39.501Z,3.21
2018-01-21T09:53:07.515Z,3.77
2018-01-21T09:55:35.457Z,4.08
2018-01-21T09:58:03.381Z,4.18
2018-01-21T10:00:31.515Z,4.37
2018-01-21T10:02:59.417Z,4.15
2018-01-21T10:05:27.357Z,4.03
2018-01-21T10:07:55.309Z,3.88
2018-01-21T10:10:23.709Z,3.89
2018-01-21T10:12:51.737Z,4.05
2018-01-21T10:15:19.653Z,4.03
2018-01-21T10:17:47.596Z,4.24
2018-01-21T10:20:15.510Z,4.27
2018-01-21T10:22:43.483Z,4.43
2018-01-21T10:25:11.421Z,4.48
2018-01-21T10:27:39.371Z,4.62
2018-01-21T10:30:07.348Z,4.87
2018-01-21T10:32:35.269Z,4.47
2018-01-21T10:35:03.654Z,4.32
2018-01-21T10:37:32.055Z,4.28
2018-01-21T10:40:00.052Z,4.16
2018-01-21T10:42:27.964Z,4.09
2018-01-21T10:44:55.952Z,3.91
2018-01-21T10:47:23.945Z,3.91
2018-01-21T10:49:52.687Z,3.76
2018-01-21T10:52:20.641Z,3.50
2018-01-21T10:54:48.576Z,3.73
2018-01-21T10:57:17.350Z,3.80
2018-01-21T10:59:45.393Z,4.01
2018-01-21T11:02:14.308Z,4.01
2018-01-21T11:04:42.247Z,3.90
2018-01-21T11:07:11.155Z,3.86
2018-01-21T11:09:39.455Z,3.92
2018-01-21T11:12:07.481Z,4.14
2018-01-21T11:14:35.864Z,4.34
2018-01-21T11:17:05.151Z,3.97
2018-01-21T11:19:33.242Z,3.97
2018-01-21T11:22:02.105Z,4.13
2018-01-21T11:24:30.238Z,4.05
2018-01-21T11:26:58.213Z,4.07
2018-01-21T11:29:26.160Z,4.16
2018-01-21T11:31:54.224Z,4.31
2018-01-21T11:34:22.138Z,4.12
2018-01-21T11:36:50.076Z,4.07
2018-01-21T11:39:18.199Z,4.09
2018-01-21T11:41:46.213Z,4.12
2018-01-21T11:44:14.143Z,4.22
2018-01-21T11:46:42.819Z,4.45
2018-01-21T11:49:10.724Z,4.52
2018-01-21T11:51:38.952Z,4.60
2018-01-21T11:54:06.899Z,4.60
2018-01-21T11:56:34.845Z,4.60
2018-01-21T11:59:02.786Z,4.32
2018-01-21T12:01:30.740Z,4.47
2018-01-21T12:03:58.681Z,4.37
2018-01-21T12:06:26.627Z,4.41
2018-01-21T12:08:54.661Z,4.41
2018-01-21T12:11:22.577Z,4.37
2018-01-21T12:13:50.526Z,4.47
2018-01-21T12:16:18.569Z,4.93
2018-01-21T12:18:46.490Z,4.88
2018-01-21T12:21:14.467Z,4.91
2018-01-21T12:23:42.477Z,5.12
2018-01-21T12:26:10.405Z,5.12
2018-01-21T12:28:38.487Z,5.05
2018-01-21T12:31:07.527Z,5.15
2018-01-21T12:33:35.518Z,5.00
2018-01-21T12:36:03.474Z,4.95
2018-01-21T12:38:31.446Z,4.80
2018-01-21T12:40:59.405Z,4.72
2018-01-21T12:43:27.331Z,4.74
2018-01-21T12:45:55.245Z,4.51
2018-01-21T12:48:23.189Z,4.58
2018-01-21T12:50:51.262Z,4.62
2018-01-21T12:53:19.187Z,4.48
2018-01-21T12:55:47.129Z,4.37
2018-01-21T12:58:15.101Z,4.38
2018-01-21T13:00:43.065Z,4.53
2018-01-21T13:03:11.598Z,4.31
2018-01-21T13:05:39.645Z,4.15
2018-01-21T13:08:08.992Z,4.19
2018-01-21T13:10:37.188Z,4.30
2018-01-21T13:13:05.439Z,4.35
2018-01-21T13:15:35.457Z,4.19
2018-01-21T13:18:04.593Z,4.19
2018-01-21T13:20:32.793Z,4.33
2018-01-21T13:23:00.912Z,4.31
2018-01-21T13:25:29.729Z,4.36
2018-01-21T13:27:57.764Z,4.28
2018-01-21T13:30:26.031Z,4.35
2018-01-21T13:32:54.359Z,4.29
2018-01-21T13:35:22.642Z,4.61
2018-01-21T13:37:50.897Z,4.51
2018-01-21T13:40:18.978Z,4.36
2018-01-21T13:42:48.086Z,4.21
2018-01-21T13:45:16.383Z,4.33
2018-01-21T13:47:44.308Z,4.26
2018-01-21T13:50:12.256Z,4.44
2018-01-21T13:52:40.286Z,4.37
2018-01-21T13:55:08.716Z,4.35
2018-01-21T13:57:36.631Z,4.24
2018-01-21T14:00:04.706Z,4.22
2018-01-21T14:02:32.640Z,4.26
2018-01-21T14:05:00.639Z,4.12
2018-01-21T14:07:28.570Z,4.16
2018-01-21T14:09:56.499Z,3.99
2018-01-21T14:12:25.385Z,4.10
2018-01-21T14:14:53.522Z,3.94
2018-01-21T14:17:21.995Z,3.83
2018-01-21T14:19:49.987Z,3.88
2018-01-21T14:22:17.975Z,3.56
2018-01-21T14:24:45.978Z,3.71
2018-01-21T14:27:13.951Z,3.69
2018-01-21T14:29:41.884Z,3.54
2018-01-21T14:32:09.897Z,3.46
2018-01-21T14:34:37.950Z,3.31
2018-01-21T14:37:05.998Z,3.33
2018-01-21T14:39:35.388Z,3.33
2018-01-21T14:42:03.502Z,3.28
2018-01-21T14:44:31.519Z,3.30
2018-01-21T14:46:59.580Z,3.43
2018-01-21T14:49:27.612Z,3.45
2018-01-21T14:51:55.565Z,3.40
2018-01-21T14:54:23.473Z,3.31
2018-01-21T14:56:51.441Z,3.29
2018-01-21T14:59:19.392Z,3.32
2018-01-21T15:01:47.360Z,3.12
2018-01-21T15:04:15.330Z,3.02
2018-01-21T15:06:44.449Z,3.02
2018-01-21T15:09:12.470Z,3.03
2018-01-21T15:11:40.426Z,2.96
2018-01-21T15:14:08.390Z,2.89
2018-01-21T15:16:36.360Z,2.84
2018-01-21T15:19:05.653Z,2.67
2018-01-21T15:21:33.595Z,2.52
2018-01-21T15:24:01.627Z,2.46
2018-01-21T15:26:29.591Z,2.55
2018-01-21T15:28:57.544Z,2.55
2018-01-21T15:31:25.515Z,2.57
2018-01-21T15:33:53.457Z,2.42
2018-01-21T15:36:21.788Z,2.21
2018-01-21T15:38:49.898Z,1.77
2018-01-21T15:41:17.853Z,1.54
2018-01-21T15:43:45.796Z,1.23
2018-01-21T15:46:13.736Z,0.86
2018-01-21T15:48:41.714Z,0.91
2018-01-21T15:51:09.622Z,0.55
2018-01-21T15:53:37.635Z,0.47
2018-01-21T15:56:05.653Z,0.43
2018-01-21T15:58:33.595Z,0.31
2018-01-21T16:01:01.569Z,0.45
2018-01-21T16:03:29.509Z,0.48
2018-01-21T16:05:57.474Z,0.44
2018-01-21T16:08:25.473Z,0.07
2018-01-21T16:10:53.493Z,0.07
2018-01-21T16:13:21.430Z,0.21
2018-01-21T16:15:49.392Z,0.15
2018-01-21T16:18:17.400Z,0.32
2018-01-21T16:20:45.377Z,0.46
2018-01-21T16:23:13.303Z,0.55
2018-01-21T16:25:41.233Z,0.58
2018-01-21T16:28:09.201Z,0.49
2018-01-21T16:30:37.125Z,0.39
2018-01-21T16:33:05.083Z,0.42
2018-01-21T16:35:33.023Z,0.42
2018-01-21T16:38:12.849Z,0.36
2018-01-21T16:40:40.885Z,0.53
2018-01-21T16:43:08.997Z,0.40
2018-01-21T16:45:36.990Z,0.36
2018-01-21T16:48:07.100Z,0.60
2018-01-21T16:50:35.040Z,0.40
2018-01-21T16:53:02.945Z,0.61
2018-01-21T16:55:30.875Z,0.66
2018-01-21T16:57:58.805Z,0.55
2018-01-21T17:00:26.841Z,0.48
2018-01-21T17:02:54.764Z,0.42
2018-01-21T17:05:22.704Z,0.40
2018-01-21T17:07:50.648Z,0.55
2018-01-21T17:10:18.558Z,0.40
2018-01-21T17:12:46.498Z,0.29
2018-01-21T17:15:14.405Z,0.33
2018-01-21T17:17:42.421Z,0.50
2018-01-21T17:20:10.507Z,0.50
2018-01-21T17:22:38.460Z,0.33
2018-01-21T17:25:06.549Z,0.34
2018-01-21T17:27:34.591Z,0.07
2018-01-21T17:30:02.557Z,0.10
2018-01-21T17:32:30.593Z,0.03
2018-01-21T17:34:58.569Z,-0.07
2018-01-21T17:37:26.501Z,-0.03
2018-01-21T17:39:54.498Z,-0.02
2018-01-21T17:42:23.309Z,-0.09
2018-01-21T17:44:51.330Z,0.03
2018-01-21T17:47:19.350Z,0.08
2018-01-21T17:49:47.272Z,0.28
2018-01-21T17:52:15.241Z,0.23
2018-01-21T17:54:43.184Z,0.29
2018-01-21T17:57:11.169Z,0.22
2018-01-21T17:59:39.111Z,0.24
2018-01-21T18:02:07.090Z,0.37
2018-01-21T18:04:35.053Z,0.37
2018-01-21T18:07:03.141Z,0.32
2018-01-21T18:09:31.152Z,0.44
2018-01-21T18:11:59.329Z,0.44
2018-01-21T18:14:27.326Z,0.50
2018-01-21T18:16:55.265Z,0.60
2018-01-21T18:19:23.276Z,0.62
2018-01-21T18:21:51.467Z,0.68
2018-01-21T18:24:19.399Z,0.76
2018-01-21T18:26:47.450Z,0.86
2018-01-21T18:29:15.433Z,0.89
2018-01-21T18:31:43.646Z,0.88
2018-01-21T18:34:11.585Z,1.14
2018-01-21T18:36:39.541Z,0.81
2018-01-21T18:39:07.496Z,0.99
2018-01-21T18:41:35.424Z,0.94
2018-01-21T18:44:03.350Z,0.96
2018-01-21T18:46:31.264Z,0.80
2018-01-21T18:48:59.246Z,0.83
2018-01-21T18:51:27.358Z,0.75
2018-01-21T18:53:55.289Z,0.82
2018-01-21T18:56:23.209Z,0.59
2018-01-21T18:58:51.126Z,0.67
2018-01-21T19:01:19.088Z,0.77
2018-01-21T19:03:47.061Z,1.21
2018-01-21T19:06:15.018Z,1.24
2018-01-21T19:08:43.047Z,1.26
2018-01-21T19:11:10.929Z,0.98
2018-01-21T19:13:38.871Z,0.78
2018-01-21T19:16:06.855Z,0.75
2018-01-21T19:18:34.826Z,0.69
2018-01-21T19:21:03.214Z,0.51
2018-01-21T19:23:31.255Z,0.59
2018-01-21T19:25:59.209Z,0.25
2018-01-21T19:28:27.123Z,0.29
2018-01-21T19:30:55.102Z,0.25
2018-01-21T19:33:23.026Z,0.29
2018-01-21T19:35:50.974Z,0.14
2018-01-21T19:43:52.265Z,0.35
2018-01-21T19:46:20.088Z,0.29
2018-01-21T19:48:48.813Z,0.19
2018-01-21T19:51:17.117Z,0.04
2018-01-21T19:53:45.265Z,0.14
2018-01-21T19:56:14.189Z,0.01
2018-01-21T19:58:42.796Z,0.10
2018-01-21T20:01:10.913Z,-0.00
2018-01-21T20:03:38.903Z,0.05
2018-01-21T20:06:06.969Z,-0.12
2018-01-21T20:08:34.905Z,-0.08
2018-01-21T20:11:03.044Z,-0.25
2018-01-21T20:13:31.041Z,-0.42
2018-01-21T20:15:59.149Z,-0.08
2018-01-21T20:18:27.103Z,-0.08
2018-01-21T20:20:55.045Z,-0.02
2018-01-21T20:23:23.024Z,-0.26
2018-01-21T20:25:51.009Z,-0.19
2018-01-21T20:28:19.043Z,-0.17
2018-01-21T20:30:47.403Z,-0.00
2018-01-21T20:33:15.306Z,-0.03
2018-01-21T20:35:43.268Z,-0.01
2018-01-21T20:38:11.240Z,-0.10
2018-01-21T20:40:39.214Z,-0.06
2018-01-21T20:43:07.570Z,-0.23
2018-01-21T20:45:35.583Z,-0.23
2018-01-21T20:48:03.579Z,-0.27
2018-01-21T20:50:31.517Z,-0.32
2018-01-21T20:53:00.536Z,-0.49
2018-01-21T20:55:28.474Z,-0.29
2018-01-21T20:57:56.425Z,-0.38
2018-01-21T21:00:24.415Z,-0.50
2018-01-21T21:02:52.371Z,-0.47
2018-01-21T21:05:20.358Z,-0.44
2018-01-21T21:07:48.327Z,-0.34
2018-01-21T21:10:16.301Z,-0.56
2018-01-21T21:12:44.300Z,-0.49
2018-01-21T21:15:12.229Z,-0.55
2018-01-21T21:17:40.218Z,-0.69
2018-01-21T21:20:08.197Z,-0.54
2018-01-21T21:22:36.204Z,-0.61
2018-01-21T21:25:04.200Z,-0.56
2018-01-21T21:27:32.320Z,-0.62
2018-01-21T21:30:00.322Z,-0.55
2018-01-21T21:32:28.278Z,-0.72
2018-01-21T21:34:56.351Z,-0.57
2018-01-21T21:37:24.357Z,-0.60
2018-01-21T21:39:52.375Z,-0.51
2018-01-21T21:42:20.309Z,-0.53
2018-01-21T21:44:48.282Z,-0.60
2018-01-21T21:47:17.205Z,-0.47
2018-01-21T21:49:45.647Z,-0.43
2018-01-21T21:52:13.601Z,-0.42
2018-01-21T21:54:41.528Z,-0.35
2018-01-21T21:57:09.497Z,-0.36
2018-01-21T21:59:37.413Z,-0.38
2018-01-21T22:02:05.398Z,-0.39
2018-01-21T22:04:33.364Z,-0.42
2018-01-21T22:07:01.313Z,-0.42
2018-01-21T22:09:29.241Z,-0.25
2018-01-21T22:11:57.233Z,-0.16
2018-01-21T22:14:25.216Z,-0.16
2018-01-21T22:16:53.232Z,-0.24
2018-01-21T22:19:21.940Z,-0.21
2018-01-21T22:21:49.867Z,-0.32
2018-01-21T22:24:17.903Z,-0.35
2018-01-21T22:26:45.853Z,-0.34
2018-01-21T22:29:13.854Z,-0.32
2018-01-21T22:31:41.789Z,-0.41
2018-01-21T22:34:09.788Z,-0.38
2018-01-21T22:36:37.833Z,-0.32
2018-01-21T22:39:05.779Z,-0.41
2018-01-21T22:41:33.827Z,-0.37
2018-01-21T22:44:01.782Z,-0.30
2018-01-21T22:46:29.732Z,-0.35
2018-01-21T22:48:57.701Z,-0.32
2018-01-21T22:51:25.693Z,-0.31
2018-01-21T22:53:54.229Z,-0.15
2018-01-21T22:56:22.194Z,-0.19
2018-01-21T22:58:50.122Z,-0.21
2018-01-21T23:01:18.161Z,-0.26
2018-01-21T23:03:46.389Z,-0.14
2018-01-21T23:06:14.338Z,-0.13
2018-01-21T23:08:42.262Z,-0.15
2018-01-21T23:11:10.198Z,-0.11
2018-01-21T23:13:38.133Z,-0.11
2018-01-21T23:16:06.077Z,-0.08
2018-01-21T23:18:34.011Z,-0.11
2018-01-21T23:21:02.014Z,-0.02
2018-01-21T23:23:29.944Z,-0.09
2018-01-21T23:25:57.882Z,0.08
2018-01-21T23:28:25.809Z,0.06
2018-01-21T23:30:53.751Z,0.06
2018-01-21T23:33:21.720Z,0.13
2018-01-21T23:35:49.676Z,-0.02
2018-01-21T23:38:17.616Z,0.01
2018-01-21T23:40:45.563Z,-0.02
2018-01-21T23:43:13.640Z,-0.02
2018-01-21T23:45:41.560Z,0.12
2018-01-21T23:48:09.530Z,-0.10
2018-01-21T23:50:37.524Z,-0.01
2018-01-21T23:53:06.205Z,0.02
2018-01-21T23:55:34.444Z,0.02
2018-01-21T23:58:02.342Z,0.05
